sensor_id;sensor_type;location;lat;lon;timestamp;temperature;humidity
14604;DHT22;7388;51.078;13.740;2023-07-13T00:00:46;27.00;33.70
14604;DHT22;7388;51.078;13.740;2023-07-13T00:03:12;27.00;32.70
14604;DHT22;7388;51.078;13.740;2023-07-13T00:05:39;27.00;33.60
14604;DHT22;7388;51.078;13.740;2023-07-13T00:08:07;27.00;33.40
14604;DHT22;7388;51.078;13.740;2023-07-13T00:10:33;26.90;33.00
14604;DHT22;7388;51.078;13.740;2023-07-13T00:12:59;26.90;33.10
14604;DHT22;7388;51.078;13.740;2023-07-13T00:15:27;26.80;33.20
14604;DHT22;7388;51.078;13.740;2023-07-13T00:17:55;26.80;33.80
14604;DHT22;7388;51.078;13.740;2023-07-13T00:20:23;26.80;34.20
14604;DHT22;7388;51.078;13.740;2023-07-13T00:22:53;26.80;34.20
14604;DHT22;7388;51.078;13.740;2023-07-13T00:25:23;26.70;33.20
14604;DHT22;7388;51.078;13.740;2023-07-13T00:27:54;26.80;33.70
14604;DHT22;7388;51.078;13.740;2023-07-13T00:30:20;26.70;35.20
14604;DHT22;7388;51.078;13.740;2023-07-13T00:32:46;26.70;33.30
14604;DHT22;7388;51.078;13.740;2023-07-13T00:35:13;26.70;33.00
14604;DHT22;7388;51.078;13.740;2023-07-13T00:37:40;26.70;32.80
14604;DHT22;7388;51.078;13.740;2023-07-13T00:40:06;26.70;32.60
14604;DHT22;7388;51.078;13.740;2023-07-13T00:42:32;26.70;32.10
14604;DHT22;7388;51.078;13.740;2023-07-13T00:47:28;26.70;31.90
14604;DHT22;7388;51.078;13.740;2023-07-13T00:49:54;26.60;32.50
14604;DHT22;7388;51.078;13.740;2023-07-13T00:52:20;26.50;34.10
14604;DHT22;7388;51.078;13.740;2023-07-13T00:54:46;26.50;33.90
14604;DHT22;7388;51.078;13.740;2023-07-13T00:57:15;26.40;34.60
14604;DHT22;7388;51.078;13.740;2023-07-13T00:59:45;26.20;35.10
14604;DHT22;7388;51.078;13.740;2023-07-13T01:02:12;26.20;35.90
14604;DHT22;7388;51.078;13.740;2023-07-13T01:04:38;26.10;36.90
14604;DHT22;7388;51.078;13.740;2023-07-13T01:07:04;26.00;37.70
14604;DHT22;7388;51.078;13.740;2023-07-13T01:09:31;26.00;38.60
14604;DHT22;7388;51.078;13.740;2023-07-13T01:11:57;26.10;39.40
14604;DHT22;7388;51.078;13.740;2023-07-13T01:14:25;26.00;39.50
14604;DHT22;7388;51.078;13.740;2023-07-13T01:16:51;26.00;39.90
14604;DHT22;7388;51.078;13.740;2023-07-13T01:22:16;25.90;38.30
14604;DHT22;7388;51.078;13.740;2023-07-13T01:24:44;25.80;39.10
14604;DHT22;7388;51.078;13.740;2023-07-13T01:27:15;25.80;39.10
14604;DHT22;7388;51.078;13.740;2023-07-13T01:29:42;25.80;39.20
14604;DHT22;7388;51.078;13.740;2023-07-13T01:32:16;25.80;38.50
14604;DHT22;7388;51.078;13.740;2023-07-13T01:34:42;25.80;39.30
14604;DHT22;7388;51.078;13.740;2023-07-13T01:37:09;25.70;39.10
14604;DHT22;7388;51.078;13.740;2023-07-13T01:39:35;25.80;38.30
14604;DHT22;7388;51.078;13.740;2023-07-13T01:42:01;25.70;38.70
14604;DHT22;7388;51.078;13.740;2023-07-13T01:44:27;25.70;38.30
14604;DHT22;7388;51.078;13.740;2023-07-13T01:46:53;25.70;37.70
14604;DHT22;7388;51.078;13.740;2023-07-13T01:49:18;25.60;37.80
14604;DHT22;7388;51.078;13.740;2023-07-13T01:51:44;25.60;37.90
14604;DHT22;7388;51.078;13.740;2023-07-13T01:54:10;25.60;37.60
14604;DHT22;7388;51.078;13.740;2023-07-13T01:56:36;25.60;37.50
14604;DHT22;7388;51.078;13.740;2023-07-13T01:59:02;25.50;38.50
14604;DHT22;7388;51.078;13.740;2023-07-13T02:01:27;25.50;38.80
14604;DHT22;7388;51.078;13.740;2023-07-13T02:03:53;25.50;38.50
14604;DHT22;7388;51.078;13.740;2023-07-13T02:06:19;25.50;38.60
14604;DHT22;7388;51.078;13.740;2023-07-13T02:08:45;25.40;39.30
14604;DHT22;7388;51.078;13.740;2023-07-13T02:11:10;25.30;39.10
14604;DHT22;7388;51.078;13.740;2023-07-13T02:13:36;25.30;38.70
14604;DHT22;7388;51.078;13.740;2023-07-13T02:16:02;25.30;38.80
14604;DHT22;7388;51.078;13.740;2023-07-13T02:18:28;25.30;38.50
14604;DHT22;7388;51.078;13.740;2023-07-13T02:20:54;25.30;39.30
14604;DHT22;7388;51.078;13.740;2023-07-13T02:23:20;25.20;40.00
14604;DHT22;7388;51.078;13.740;2023-07-13T02:25:45;25.20;39.10
14604;DHT22;7388;51.078;13.740;2023-07-13T02:28:11;25.20;38.50
14604;DHT22;7388;51.078;13.740;2023-07-13T02:30:37;25.20;39.10
14604;DHT22;7388;51.078;13.740;2023-07-13T02:33:04;25.20;38.90
14604;DHT22;7388;51.078;13.740;2023-07-13T02:35:30;25.20;39.40
14604;DHT22;7388;51.078;13.740;2023-07-13T02:37:56;25.20;40.00
14604;DHT22;7388;51.078;13.740;2023-07-13T02:40:22;25.20;39.60
14604;DHT22;7388;51.078;13.740;2023-07-13T02:42:48;25.10;40.30
14604;DHT22;7388;51.078;13.740;2023-07-13T02:45:14;25.10;40.50
14604;DHT22;7388;51.078;13.740;2023-07-13T02:47:41;25.00;40.70
14604;DHT22;7388;51.078;13.740;2023-07-13T02:50:07;25.00;40.30
14604;DHT22;7388;51.078;13.740;2023-07-13T02:52:33;25.10;40.80
14604;DHT22;7388;51.078;13.740;2023-07-13T02:54:59;25.10;40.70
14604;DHT22;7388;51.078;13.740;2023-07-13T02:57:25;25.60;40.80
14604;DHT22;7388;51.078;13.740;2023-07-13T02:59:50;25.00;41.00
14604;DHT22;7388;51.078;13.740;2023-07-13T03:02:16;25.00;41.60
14604;DHT22;7388;51.078;13.740;2023-07-13T03:04:42;25.00;41.60
14604;DHT22;7388;51.078;13.740;2023-07-13T03:07:08;25.00;41.50
14604;DHT22;7388;51.078;13.740;2023-07-13T03:09:34;25.10;41.40
14604;DHT22;7388;51.078;13.740;2023-07-13T03:12:00;25.00;41.60
14604;DHT22;7388;51.078;13.740;2023-07-13T03:14:26;25.00;41.70
14604;DHT22;7388;51.078;13.740;2023-07-13T03:16:52;24.90;42.30
14604;DHT22;7388;51.078;13.740;2023-07-13T03:19:18;24.90;42.10
14604;DHT22;7388;51.078;13.740;2023-07-13T03:21:44;24.90;42.60
14604;DHT22;7388;51.078;13.740;2023-07-13T03:24:10;24.80;42.90
14604;DHT22;7388;51.078;13.740;2023-07-13T03:26:36;24.80;43.10
14604;DHT22;7388;51.078;13.740;2023-07-13T03:29:02;24.70;43.60
14604;DHT22;7388;51.078;13.740;2023-07-13T03:31:29;24.70;43.90
14604;DHT22;7388;51.078;13.740;2023-07-13T03:33:56;24.70;43.90
14604;DHT22;7388;51.078;13.740;2023-07-13T03:36:25;24.60;44.00
14604;DHT22;7388;51.078;13.740;2023-07-13T03:38:53;24.60;44.20
14604;DHT22;7388;51.078;13.740;2023-07-13T03:41:20;24.50;44.60
14604;DHT22;7388;51.078;13.740;2023-07-13T03:43:46;24.50;44.50
14604;DHT22;7388;51.078;13.740;2023-07-13T03:46:16;24.50;44.70
14604;DHT22;7388;51.078;13.740;2023-07-13T03:48:44;24.50;44.80
14604;DHT22;7388;51.078;13.740;2023-07-13T03:51:12;24.50;44.80
14604;DHT22;7388;51.078;13.740;2023-07-13T03:53:41;24.50;44.70
14604;DHT22;7388;51.078;13.740;2023-07-13T03:56:08;24.50;44.90
14604;DHT22;7388;51.078;13.740;2023-07-13T03:58:39;24.60;45.20
14604;DHT22;7388;51.078;13.740;2023-07-13T04:01:07;24.50;45.40
14604;DHT22;7388;51.078;13.740;2023-07-13T04:03:34;24.50;45.20
14604;DHT22;7388;51.078;13.740;2023-07-13T04:06:00;24.60;45.30
14604;DHT22;7388;51.078;13.740;2023-07-13T04:08:32;24.60;45.20
14604;DHT22;7388;51.078;13.740;2023-07-13T04:10:59;24.60;45.20
14604;DHT22;7388;51.078;13.740;2023-07-13T04:13:25;24.60;45.30
14604;DHT22;7388;51.078;13.740;2023-07-13T04:15:52;24.60;44.80
14604;DHT22;7388;51.078;13.740;2023-07-13T04:18:18;24.70;44.10
14604;DHT22;7388;51.078;13.740;2023-07-13T04:20:46;24.70;43.80
14604;DHT22;7388;51.078;13.740;2023-07-13T04:23:12;24.80;43.40
14604;DHT22;7388;51.078;13.740;2023-07-13T04:25:38;24.80;43.00
14604;DHT22;7388;51.078;13.740;2023-07-13T04:28:04;24.90;43.40
14604;DHT22;7388;51.078;13.740;2023-07-13T04:30:30;24.90;43.40
14604;DHT22;7388;51.078;13.740;2023-07-13T04:32:56;25.00;43.90
14604;DHT22;7388;51.078;13.740;2023-07-13T04:35:22;25.00;43.30
14604;DHT22;7388;51.078;13.740;2023-07-13T04:37:49;25.00;42.00
14604;DHT22;7388;51.078;13.740;2023-07-13T04:40:17;25.00;42.40
14604;DHT22;7388;51.078;13.740;2023-07-13T04:42:44;25.00;42.80
14604;DHT22;7388;51.078;13.740;2023-07-13T04:45:10;25.00;43.10
14604;DHT22;7388;51.078;13.740;2023-07-13T04:47:37;25.00;43.30
14604;DHT22;7388;51.078;13.740;2023-07-13T04:50:03;25.00;43.50
14604;DHT22;7388;51.078;13.740;2023-07-13T04:52:28;25.00;43.20
14604;DHT22;7388;51.078;13.740;2023-07-13T04:54:54;25.00;43.10
14604;DHT22;7388;51.078;13.740;2023-07-13T04:57:20;25.00;43.20
14604;DHT22;7388;51.078;13.740;2023-07-13T04:59:46;25.00;43.20
14604;DHT22;7388;51.078;13.740;2023-07-13T05:02:11;25.00;43.00
14604;DHT22;7388;51.078;13.740;2023-07-13T05:04:37;25.10;42.40
14604;DHT22;7388;51.078;13.740;2023-07-13T05:07:03;25.10;40.80
14604;DHT22;7388;51.078;13.740;2023-07-13T05:09:29;25.20;40.70
14604;DHT22;7388;51.078;13.740;2023-07-13T05:11:54;25.20;40.00
14604;DHT22;7388;51.078;13.740;2023-07-13T05:14:20;25.30;39.90
14604;DHT22;7388;51.078;13.740;2023-07-13T05:16:46;25.40;39.70
14604;DHT22;7388;51.078;13.740;2023-07-13T05:19:12;25.40;39.70
14604;DHT22;7388;51.078;13.740;2023-07-13T05:21:38;25.50;40.00
14604;DHT22;7388;51.078;13.740;2023-07-13T05:24:04;25.60;39.60
14604;DHT22;7388;51.078;13.740;2023-07-13T05:26:29;25.70;38.50
14604;DHT22;7388;51.078;13.740;2023-07-13T05:28:55;25.70;38.50
14604;DHT22;7388;51.078;13.740;2023-07-13T05:31:21;25.70;38.30
14604;DHT22;7388;51.078;13.740;2023-07-13T05:33:47;25.70;38.30
14604;DHT22;7388;51.078;13.740;2023-07-13T05:36:12;25.70;38.60
14604;DHT22;7388;51.078;13.740;2023-07-13T05:38:38;25.70;38.00
14604;DHT22;7388;51.078;13.740;2023-07-13T05:41:05;25.70;37.70
14604;DHT22;7388;51.078;13.740;2023-07-13T05:43:31;25.70;38.30
14604;DHT22;7388;51.078;13.740;2023-07-13T05:45:57;25.80;37.80
14604;DHT22;7388;51.078;13.740;2023-07-13T05:48:23;25.90;37.00
14604;DHT22;7388;51.078;13.740;2023-07-13T05:50:49;25.90;37.50
14604;DHT22;7388;51.078;13.740;2023-07-13T05:53:15;25.90;37.20
14604;DHT22;7388;51.078;13.740;2023-07-13T05:55:42;25.90;37.20
14604;DHT22;7388;51.078;13.740;2023-07-13T05:58:09;26.00;37.50
14604;DHT22;7388;51.078;13.740;2023-07-13T06:00:35;26.00;37.20
14604;DHT22;7388;51.078;13.740;2023-07-13T06:03:01;26.10;37.70
14604;DHT22;7388;51.078;13.740;2023-07-13T06:05:27;26.20;38.00
14604;DHT22;7388;51.078;13.740;2023-07-13T06:07:54;26.30;37.60
14604;DHT22;7388;51.078;13.740;2023-07-13T06:10:20;26.40;37.00
14604;DHT22;7388;51.078;13.740;2023-07-13T06:12:46;26.40;36.60
14604;DHT22;7388;51.078;13.740;2023-07-13T06:15:12;26.40;36.40
14604;DHT22;7388;51.078;13.740;2023-07-13T06:17:38;26.40;36.20
14604;DHT22;7388;51.078;13.740;2023-07-13T06:20:04;26.40;36.80
14604;DHT22;7388;51.078;13.740;2023-07-13T06:22:30;26.40;36.40
14604;DHT22;7388;51.078;13.740;2023-07-13T06:24:55;26.40;36.50
14604;DHT22;7388;51.078;13.740;2023-07-13T06:27:21;26.40;36.60
14604;DHT22;7388;51.078;13.740;2023-07-13T06:29:47;26.50;36.70
14604;DHT22;7388;51.078;13.740;2023-07-13T06:32:13;26.50;36.70
14604;DHT22;7388;51.078;13.740;2023-07-13T06:34:38;26.50;36.90
14604;DHT22;7388;51.078;13.740;2023-07-13T06:37:04;26.60;36.80
14604;DHT22;7388;51.078;13.740;2023-07-13T06:39:30;26.70;36.80
14604;DHT22;7388;51.078;13.740;2023-07-13T06:41:56;26.70;36.30
14604;DHT22;7388;51.078;13.740;2023-07-13T06:44:21;26.70;36.10
14604;DHT22;7388;51.078;13.740;2023-07-13T06:46:47;26.80;35.90
14604;DHT22;7388;51.078;13.740;2023-07-13T06:49:13;26.90;35.90
14604;DHT22;7388;51.078;13.740;2023-07-13T06:51:39;27.00;35.70
14604;DHT22;7388;51.078;13.740;2023-07-13T06:54:04;27.20;36.30
14604;DHT22;7388;51.078;13.740;2023-07-13T06:56:30;27.40;35.90
14604;DHT22;7388;51.078;13.740;2023-07-13T06:58:56;27.50;36.40
14604;DHT22;7388;51.078;13.740;2023-07-13T07:01:22;27.60;35.70
14604;DHT22;7388;51.078;13.740;2023-07-13T07:03:47;27.60;35.30
14604;DHT22;7388;51.078;13.740;2023-07-13T07:06:20;27.60;34.50
14604;DHT22;7388;51.078;13.740;2023-07-13T07:08:46;27.60;35.00
14604;DHT22;7388;51.078;13.740;2023-07-13T07:11:14;27.60;35.60
14604;DHT22;7388;51.078;13.740;2023-07-13T07:13:40;27.80;34.70
14604;DHT22;7388;51.078;13.740;2023-07-13T07:16:06;27.80;35.10
14604;DHT22;7388;51.078;13.740;2023-07-13T07:18:32;27.80;34.80
14604;DHT22;7388;51.078;13.740;2023-07-13T07:20:58;27.80;34.20
14604;DHT22;7388;51.078;13.740;2023-07-13T07:23:24;27.80;34.60
14604;DHT22;7388;51.078;13.740;2023-07-13T07:25:49;27.80;34.40
14604;DHT22;7388;51.078;13.740;2023-07-13T07:28:17;27.80;34.80
14604;DHT22;7388;51.078;13.740;2023-07-13T07:30:47;27.80;35.10
14604;DHT22;7388;51.078;13.740;2023-07-13T07:33:13;27.90;33.90
14604;DHT22;7388;51.078;13.740;2023-07-13T07:35:39;28.00;34.70
14604;DHT22;7388;51.078;13.740;2023-07-13T07:38:05;28.00;35.30
14604;DHT22;7388;51.078;13.740;2023-07-13T07:40:31;28.00;34.90
14604;DHT22;7388;51.078;13.740;2023-07-13T07:42:57;28.00;34.10
14604;DHT22;7388;51.078;13.740;2023-07-13T07:45:23;28.00;34.50
14604;DHT22;7388;51.078;13.740;2023-07-13T07:47:49;28.00;33.80
14604;DHT22;7388;51.078;13.740;2023-07-13T07:50:15;28.20;34.20
14604;DHT22;7388;51.078;13.740;2023-07-13T07:52:41;28.40;34.90
14604;DHT22;7388;51.078;13.740;2023-07-13T07:55:08;28.60;32.90
14604;DHT22;7388;51.078;13.740;2023-07-13T07:57:34;28.60;33.40
14604;DHT22;7388;51.078;13.740;2023-07-13T08:00:00;28.70;33.80
14604;DHT22;7388;51.078;13.740;2023-07-13T08:02:26;28.80;32.90
14604;DHT22;7388;51.078;13.740;2023-07-13T08:04:52;28.80;32.20
14604;DHT22;7388;51.078;13.740;2023-07-13T08:07:18;28.80;32.10
14604;DHT22;7388;51.078;13.740;2023-07-13T08:09:44;28.80;31.90
14604;DHT22;7388;51.078;13.740;2023-07-13T08:12:10;28.80;31.80
14604;DHT22;7388;51.078;13.740;2023-07-13T08:14:36;28.80;30.80
14604;DHT22;7388;51.078;13.740;2023-07-13T08:17:01;28.70;29.60
14604;DHT22;7388;51.078;13.740;2023-07-13T08:19:27;28.80;31.40
14604;DHT22;7388;51.078;13.740;2023-07-13T08:21:53;28.90;32.80
14604;DHT22;7388;51.078;13.740;2023-07-13T08:24:23;29.10;32.30
14604;DHT22;7388;51.078;13.740;2023-07-13T08:26:49;29.10;31.30
14604;DHT22;7388;51.078;13.740;2023-07-13T08:29:15;29.20;30.90
14604;DHT22;7388;51.078;13.740;2023-07-13T08:31:41;29.30;30.70
14604;DHT22;7388;51.078;13.740;2023-07-13T08:34:07;29.40;30.90
14604;DHT22;7388;51.078;13.740;2023-07-13T08:36:33;29.50;31.40
14604;DHT22;7388;51.078;13.740;2023-07-13T08:38:59;29.60;31.20
14604;DHT22;7388;51.078;13.740;2023-07-13T08:41:24;29.80;31.70
14604;DHT22;7388;51.078;13.740;2023-07-13T08:43:57;29.90;30.90
14604;DHT22;7388;51.078;13.740;2023-07-13T08:46:40;29.90;29.20
14604;DHT22;7388;51.078;13.740;2023-07-13T08:49:14;29.90;29.30
14604;DHT22;7388;51.078;13.740;2023-07-13T08:51:48;29.80;30.50
14604;DHT22;7388;51.078;13.740;2023-07-13T08:57:15;29.70;30.40
14604;DHT22;7388;51.078;13.740;2023-07-13T08:59:42;29.70;30.40
14604;DHT22;7388;51.078;13.740;2023-07-13T09:04:53;29.70;28.60
14604;DHT22;7388;51.078;13.740;2023-07-13T09:15:40;29.50;30.50
14604;DHT22;7388;51.078;13.740;2023-07-13T09:20:50;29.60;29.00
14604;DHT22;7388;51.078;13.740;2023-07-13T09:23:22;29.70;29.70
14604;DHT22;7388;51.078;13.740;2023-07-13T09:25:54;29.90;30.40
14604;DHT22;7388;51.078;13.740;2023-07-13T09:28:27;30.00;28.90
14604;DHT22;7388;51.078;13.740;2023-07-13T09:31:03;29.90;27.00
14604;DHT22;7388;51.078;13.740;2023-07-13T09:33:30;29.90;28.30
14604;DHT22;7388;51.078;13.740;2023-07-13T09:35:57;29.70;27.90
14604;DHT22;7388;51.078;13.740;2023-07-13T09:38:26;29.70;28.80
14604;DHT22;7388;51.078;13.740;2023-07-13T09:41:19;29.70;29.20
14604;DHT22;7388;51.078;13.740;2023-07-13T09:44:31;29.80;29.30
14604;DHT22;7388;51.078;13.740;2023-07-13T09:46:58;29.90;30.00
14604;DHT22;7388;51.078;13.740;2023-07-13T09:49:33;30.00;29.60
14604;DHT22;7388;51.078;13.740;2023-07-13T09:52:04;30.10;30.00
14604;DHT22;7388;51.078;13.740;2023-07-13T09:54:34;30.10;28.80
14604;DHT22;7388;51.078;13.740;2023-07-13T09:57:02;30.00;28.30
14604;DHT22;7388;51.078;13.740;2023-07-13T09:59:37;30.00;28.90
14604;DHT22;7388;51.078;13.740;2023-07-13T10:02:29;30.10;29.40
14604;DHT22;7388;51.078;13.740;2023-07-13T10:05:11;30.30;29.50
14604;DHT22;7388;51.078;13.740;2023-07-13T10:07:43;30.50;28.50
14604;DHT22;7388;51.078;13.740;2023-07-13T10:10:36;30.50;29.20
14604;DHT22;7388;51.078;13.740;2023-07-13T10:13:01;30.50;26.80
14604;DHT22;7388;51.078;13.740;2023-07-13T10:15:30;30.40;26.50
14604;DHT22;7388;51.078;13.740;2023-07-13T10:17:56;30.40;28.50
14604;DHT22;7388;51.078;13.740;2023-07-13T10:20:24;30.30;27.70
14604;DHT22;7388;51.078;13.740;2023-07-13T10:23:18;30.20;26.50
14604;DHT22;7388;51.078;13.740;2023-07-13T10:25:47;30.20;27.70
14604;DHT22;7388;51.078;13.740;2023-07-13T10:30:55;30.10;27.70
14604;DHT22;7388;51.078;13.740;2023-07-13T10:33:22;30.10;26.90
14604;DHT22;7388;51.078;13.740;2023-07-13T10:35:52;30.10;27.10
14604;DHT22;7388;51.078;13.740;2023-07-13T10:38:22;30.10;25.90
14604;DHT22;7388;51.078;13.740;2023-07-13T10:41:02;30.00;26.90
14604;DHT22;7388;51.078;13.740;2023-07-13T10:43:44;30.10;28.90
14604;DHT22;7388;51.078;13.740;2023-07-13T10:46:13;30.20;29.20
14604;DHT22;7388;51.078;13.740;2023-07-13T10:48:42;30.40;28.50
14604;DHT22;7388;51.078;13.740;2023-07-13T10:51:10;30.60;29.00
14604;DHT22;7388;51.078;13.740;2023-07-13T10:53:38;30.60;26.90
14604;DHT22;7388;51.078;13.740;2023-07-13T10:58:42;30.90;26.00
14604;DHT22;7388;51.078;13.740;2023-07-13T11:01:12;31.10;25.40
14604;DHT22;7388;51.078;13.740;2023-07-13T11:04:00;31.20;26.00
14604;DHT22;7388;51.078;13.740;2023-07-13T11:09:34;31.20;25.80
14604;DHT22;7388;51.078;13.740;2023-07-13T11:12:07;31.20;25.40
14604;DHT22;7388;51.078;13.740;2023-07-13T11:15:11;31.20;26.20
14604;DHT22;7388;51.078;13.740;2023-07-13T11:17:33;31.10;25.60
14604;DHT22;7388;51.078;13.740;2023-07-13T11:20:19;31.00;24.80
14604;DHT22;7388;51.078;13.740;2023-07-13T11:23:07;31.00;25.40
14604;DHT22;7388;51.078;13.740;2023-07-13T11:25:34;31.20;26.70
14604;DHT22;7388;51.078;13.740;2023-07-13T11:31:00;31.40;25.60
14604;DHT22;7388;51.078;13.740;2023-07-13T11:36:07;31.30;26.10
14604;DHT22;7388;51.078;13.740;2023-07-13T11:38:40;31.50;28.20
14604;DHT22;7388;51.078;13.740;2023-07-13T11:41:21;31.70;27.80
14604;DHT22;7388;51.078;13.740;2023-07-13T11:43:55;31.80;26.40
14604;DHT22;7388;51.078;13.740;2023-07-13T11:46:23;31.80;26.10
14604;DHT22;7388;51.078;13.740;2023-07-13T11:48:50;31.80;25.50
14604;DHT22;7388;51.078;13.740;2023-07-13T11:51:21;31.80;26.10
14604;DHT22;7388;51.078;13.740;2023-07-13T11:53:50;31.80;26.80
14604;DHT22;7388;51.078;13.740;2023-07-13T11:56:16;31.80;26.60
14604;DHT22;7388;51.078;13.740;2023-07-13T11:58:43;31.80;26.00
14604;DHT22;7388;51.078;13.740;2023-07-13T12:01:26;31.80;25.40
14604;DHT22;7388;51.078;13.740;2023-07-13T12:04:02;31.90;27.20
14604;DHT22;7388;51.078;13.740;2023-07-13T12:06:34;32.00;26.40
14604;DHT22;7388;51.078;13.740;2023-07-13T12:09:13;32.10;26.10
14604;DHT22;7388;51.078;13.740;2023-07-13T12:11:41;32.40;25.70
14604;DHT22;7388;51.078;13.740;2023-07-13T12:14:15;32.50;26.70
14604;DHT22;7388;51.078;13.740;2023-07-13T12:16:42;32.70;26.50
14604;DHT22;7388;51.078;13.740;2023-07-13T12:19:27;32.70;24.30
14604;DHT22;7388;51.078;13.740;2023-07-13T12:21:55;32.90;21.20
14604;DHT22;7388;51.078;13.740;2023-07-13T12:24:23;32.90;23.50
14604;DHT22;7388;51.078;13.740;2023-07-13T12:26:54;32.90;22.80
14604;DHT22;7388;51.078;13.740;2023-07-13T12:29:20;32.90;23.70
14604;DHT22;7388;51.078;13.740;2023-07-13T12:31:48;33.00;23.80
14604;DHT22;7388;51.078;13.740;2023-07-13T12:34:16;33.10;22.70
14604;DHT22;7388;51.078;13.740;2023-07-13T12:39:18;32.90;22.40
14604;DHT22;7388;51.078;13.740;2023-07-13T12:41:44;32.70;22.80
14604;DHT22;7388;51.078;13.740;2023-07-13T12:44:42;32.60;21.50
14604;DHT22;7388;51.078;13.740;2023-07-13T12:47:13;32.40;21.40
14604;DHT22;7388;51.078;13.740;2023-07-13T12:49:48;32.40;24.30
14604;DHT22;7388;51.078;13.740;2023-07-13T12:52:20;32.40;21.50
14604;DHT22;7388;51.078;13.740;2023-07-13T12:55:01;32.20;21.70
14604;DHT22;7388;51.078;13.740;2023-07-13T12:57:28;32.20;23.80
14604;DHT22;7388;51.078;13.740;2023-07-13T12:59:54;32.40;23.30
14604;DHT22;7388;51.078;13.740;2023-07-13T13:02:38;32.50;21.90
14604;DHT22;7388;51.078;13.740;2023-07-13T13:05:04;32.70;22.50
14604;DHT22;7388;51.078;13.740;2023-07-13T13:07:30;32.80;22.10
14604;DHT22;7388;51.078;13.740;2023-07-13T13:09:56;33.00;22.30
14604;DHT22;7388;51.078;13.740;2023-07-13T13:12:22;33.10;21.30
14604;DHT22;7388;51.078;13.740;2023-07-13T13:14:51;33.30;23.30
14604;DHT22;7388;51.078;13.740;2023-07-13T13:17:23;33.40;23.00
14604;DHT22;7388;51.078;13.740;2023-07-13T13:19:51;33.50;21.80
14604;DHT22;7388;51.078;13.740;2023-07-13T13:22:20;33.60;21.50
14604;DHT22;7388;51.078;13.740;2023-07-13T13:24:46;33.70;19.40
14604;DHT22;7388;51.078;13.740;2023-07-13T13:27:20;33.60;20.40
14604;DHT22;7388;51.078;13.740;2023-07-13T13:29:49;33.70;21.00
14604;DHT22;7388;51.078;13.740;2023-07-13T13:32:17;33.60;21.80
14604;DHT22;7388;51.078;13.740;2023-07-13T13:34:44;33.60;22.60
14604;DHT22;7388;51.078;13.740;2023-07-13T13:37:21;33.70;21.90
14604;DHT22;7388;51.078;13.740;2023-07-13T13:39:48;33.70;23.20
14604;DHT22;7388;51.078;13.740;2023-07-13T13:42:15;33.80;23.80
14604;DHT22;7388;51.078;13.740;2023-07-13T13:44:41;33.90;22.60
14604;DHT22;7388;51.078;13.740;2023-07-13T13:47:38;34.00;22.60
14604;DHT22;7388;51.078;13.740;2023-07-13T13:50:30;34.10;22.50
14604;DHT22;7388;51.078;13.740;2023-07-13T13:52:56;34.10;22.50
14604;DHT22;7388;51.078;13.740;2023-07-13T13:55:22;34.00;22.90
14604;DHT22;7388;51.078;13.740;2023-07-13T13:57:49;33.90;21.30
14604;DHT22;7388;51.078;13.740;2023-07-13T14:00:17;33.80;21.70
14604;DHT22;7388;51.078;13.740;2023-07-13T14:02:47;33.70;22.00
14604;DHT22;7388;51.078;13.740;2023-07-13T14:05:15;33.80;21.60
14604;DHT22;7388;51.078;13.740;2023-07-13T14:07:42;33.80;21.90
14604;DHT22;7388;51.078;13.740;2023-07-13T14:10:12;33.80;19.80
14604;DHT22;7388;51.078;13.740;2023-07-13T14:12:43;33.80;22.40
14604;DHT22;7388;51.078;13.740;2023-07-13T14:15:22;33.80;21.50
14604;DHT22;7388;51.078;13.740;2023-07-13T14:17:48;33.90;21.20
14604;DHT22;7388;51.078;13.740;2023-07-13T14:20:17;33.80;19.00
14604;DHT22;7388;51.078;13.740;2023-07-13T14:22:43;33.70;19.90
14604;DHT22;7388;51.078;13.740;2023-07-13T14:25:15;33.80;20.60
14604;DHT22;7388;51.078;13.740;2023-07-13T14:27:42;33.80;19.50
14604;DHT22;7388;51.078;13.740;2023-07-13T14:30:16;33.90;20.10
14604;DHT22;7388;51.078;13.740;2023-07-13T14:32:42;34.10;22.60
14604;DHT22;7388;51.078;13.740;2023-07-13T14:35:12;34.20;20.60
14604;DHT22;7388;51.078;13.740;2023-07-13T14:37:39;34.20;19.50
14604;DHT22;7388;51.078;13.740;2023-07-13T14:42:38;34.30;18.50
14604;DHT22;7388;51.078;13.740;2023-07-13T14:45:05;34.20;19.60
14604;DHT22;7388;51.078;13.740;2023-07-13T14:47:31;34.10;20.70
14604;DHT22;7388;51.078;13.740;2023-07-13T14:49:57;34.10;20.70
14604;DHT22;7388;51.078;13.740;2023-07-13T14:52:23;34.10;20.00
14604;DHT22;7388;51.078;13.740;2023-07-13T14:54:51;34.10;21.00
14604;DHT22;7388;51.078;13.740;2023-07-13T14:57:18;34.20;21.00
14604;DHT22;7388;51.078;13.740;2023-07-13T14:59:45;34.20;20.70
14604;DHT22;7388;51.078;13.740;2023-07-13T15:04:44;34.10;20.90
14604;DHT22;7388;51.078;13.740;2023-07-13T15:07:11;34.10;21.00
14604;DHT22;7388;51.078;13.740;2023-07-13T15:09:39;34.10;20.80
14604;DHT22;7388;51.078;13.740;2023-07-13T15:12:05;34.10;19.40
14604;DHT22;7388;51.078;13.740;2023-07-13T15:14:31;33.90;18.80
14604;DHT22;7388;51.078;13.740;2023-07-13T15:16:57;33.90;19.60
14604;DHT22;7388;51.078;13.740;2023-07-13T15:19:25;33.80;20.80
14604;DHT22;7388;51.078;13.740;2023-07-13T15:21:52;33.90;19.10
14604;DHT22;7388;51.078;13.740;2023-07-13T15:24:20;33.80;18.80
14604;DHT22;7388;51.078;13.740;2023-07-13T15:26:47;33.80;19.30
14604;DHT22;7388;51.078;13.740;2023-07-13T15:29:15;33.80;18.10
14604;DHT22;7388;51.078;13.740;2023-07-13T15:31:41;33.70;19.20
14604;DHT22;7388;51.078;13.740;2023-07-13T15:34:15;33.70;19.30
14604;DHT22;7388;51.078;13.740;2023-07-13T15:36:42;33.70;20.40
14604;DHT22;7388;51.078;13.740;2023-07-13T15:39:14;33.70;18.60
14604;DHT22;7388;51.078;13.740;2023-07-13T15:41:44;33.70;18.00
14604;DHT22;7388;51.078;13.740;2023-07-13T15:44:24;33.60;19.10
14604;DHT22;7388;51.078;13.740;2023-07-13T15:46:51;33.50;17.20
14604;DHT22;7388;51.078;13.740;2023-07-13T15:49:16;33.40;19.60
14604;DHT22;7388;51.078;13.740;2023-07-13T15:51:42;33.30;19.30
14604;DHT22;7388;51.078;13.740;2023-07-13T15:54:10;33.30;20.50
14604;DHT22;7388;51.078;13.740;2023-07-13T15:56:37;33.30;20.90
14604;DHT22;7388;51.078;13.740;2023-07-13T15:59:05;33.30;19.70
14604;DHT22;7388;51.078;13.740;2023-07-13T16:01:32;33.20;18.00
14604;DHT22;7388;51.078;13.740;2023-07-13T16:03:58;33.20;18.10
14604;DHT22;7388;51.078;13.740;2023-07-13T16:06:27;33.10;17.80
14604;DHT22;7388;51.078;13.740;2023-07-13T16:08:54;33.00;16.40
14604;DHT22;7388;51.078;13.740;2023-07-13T16:11:23;32.90;17.90
14604;DHT22;7388;51.078;13.740;2023-07-13T16:13:50;32.90;18.30
14604;DHT22;7388;51.078;13.740;2023-07-13T16:16:26;32.80;17.20
14604;DHT22;7388;51.078;13.740;2023-07-13T16:18:53;32.80;18.40
14604;DHT22;7388;51.078;13.740;2023-07-13T16:21:26;32.70;17.90